Terminal Aerodrome Forecast
Issued by NWS Glasgow, MT

Home | Current Version | Previous Version | Text Only | Print | Product List | Glossary On
Versions: 1 2 3 4 5 6 7 8 9 10 11 12
000
FTUS45 KGGW 201700
TAFGGW
TAF
KGGW 201727Z 2018/2118 33012KT P6SM VCSH SCT090 BKN150
     FM210000 03008KT P6SM FEW150 SCT300
     FM211000 05011KT P6SM VCSH SCT060 BKN120
     FM211600 08009KT 3SM -RA SCT020 OVC050=

USA.gov is the U.S. government's official web portal to all federal, state and local government web resources and services.